Time;durP1;ratioP1;P1;durP2;ratioP2;P2;SDS_P1;SDS_P2;PMS_P1;PMS_P2;Temp;Humidity;BMP_temperature;BMP_pressure;BME280_temperature;BME280_humidity;BME280_pressure;Samples;Min_cycle;Max_cycle;Signal;HPM_P1;HPM_P2
2023/11/29 00:00:10;;;;;;;11.80;5.50;;;;;;;4.33;79.62;98677.02;107623;1256;108438;-61
2023/11/29 00:03:01;;;;;;;8.10;5.50;;;;;;;4.37;79.68;98675.73;107595;1257;110223;-60
2023/11/29 00:05:31;;;;;;;7.20;5.20;;;;;;;4.41;79.96;98681.42;107545;1256;99188;-60
2023/11/29 00:08:10;;;;;;;7.20;5.40;;;;;;;4.43;79.59;98683.91;107572;1256;99208;-61
2023/11/29 00:10:38;;;;;;;8.20;5.80;;;;;;;4.44;79.73;98688.53;107588;1254;112870;-61
2023/11/29 00:13:07;;;;;;;7.80;5.80;;;;;;;4.46;79.75;98691.20;107517;1254;110638;-61
2023/11/29 00:15:35;;;;;;;13.00;7.00;;;;;;;4.46;79.57;98685.58;107578;1251;107550;-63
2023/11/29 00:18:03;;;;;;;11.50;6.10;;;;;;;4.44;79.40;98689.29;107615;1255;99167;-60
2023/11/29 00:20:32;;;;;;;8.70;6.90;;;;;;;4.42;79.50;98684.36;107640;1255;99185;-60
2023/11/29 00:23:00;;;;;;;9.00;6.00;;;;;;;4.38;79.33;98688.48;107630;1257;112150;-60
2023/11/29 00:25:28;;;;;;;11.10;7.00;;;;;;;4.32;79.23;98689.70;107588;1254;109563;-61
2023/11/29 00:27:56;;;;;;;11.80;6.40;;;;;;;4.27;78.91;98693.56;107602;1254;108269;-60
2023/11/29 00:30:27;;;;;;;8.50;6.00;;;;;;;4.16;78.37;98697.77;107567;1254;99307;-61
2023/11/29 00:32:57;;;;;;;10.20;7.00;;;;;;;4.09;78.42;98697.42;107613;1256;99218;-60
2023/11/29 00:35:26;;;;;;;9.50;6.90;;;;;;;3.99;78.00;98701.55;107661;1252;111865;-60
2023/11/29 00:37:54;;;;;;;10.10;6.10;;;;;;;3.91;78.28;98701.06;107598;1251;110148;-60
2023/11/29 00:40:22;;;;;;;8.70;6.30;;;;;;;3.86;78.30;98696.91;107538;1254;107908;-62
2023/11/29 00:42:50;;;;;;;11.20;7.00;;;;;;;3.80;78.28;98709.83;107571;1254;99827;-61
2023/11/29 00:45:30;;;;;;;9.30;6.60;;;;;;;3.75;78.52;98710.48;107586;1254;99730;-61
2023/11/29 00:47:59;;;;;;;9.80;7.10;;;;;;;3.71;78.61;98716.02;107360;1254;112280;-61
2023/11/29 00:50:27;;;;;;;13.20;7.20;;;;;;;3.67;79.64;98720.66;107463;1253;108906;-61
2023/11/29 00:52:56;;;;;;;10.20;7.10;;;;;;;3.64;79.77;98728.20;107572;1255;106963;-61
2023/11/29 00:55:24;;;;;;;10.50;7.00;;;;;;;3.65;79.50;98733.73;107611;1251;99174;-61
2023/11/29 00:58:02;;;;;;;9.70;6.80;;;;;;;3.68;79.86;98744.48;107604;1256;99706;-61
2023/11/29 01:00:31;;;;;;;11.30;7.20;;;;;;;3.71;79.75;98750.20;107488;1253;114109;-62
2023/11/29 01:02:59;;;;;;;12.60;7.90;;;;;;;3.73;79.68;98753.73;107558;1253;109574;-62
2023/11/29 01:05:28;;;;;;;11.30;6.10;;;;;;;3.78;80.12;98758.49;107543;1253;107499;-62
2023/11/29 01:07:56;;;;;;;9.30;6.00;;;;;;;3.83;80.45;98761.56;107573;1255;99029;-61
2023/11/29 01:10:25;;;;;;;9.40;6.10;;;;;;;3.79;80.29;98766.15;107559;1256;99185;-61
2023/11/29 01:12:53;;;;;;;13.00;6.70;;;;;;;3.71;80.04;98770.65;107592;1254;112551;-61
2023/11/29 01:15:21;;;;;;;9.20;6.30;;;;;;;3.68;80.32;98774.59;107459;1254;109784;-59
2023/11/29 01:17:50;;;;;;;16.70;6.40;;;;;;;3.69;80.27;98777.34;107448;1253;108339;-64
2023/11/29 01:20:18;;;;;;;11.60;6.80;;;;;;;3.74;80.79;98778.09;107570;1252;99215;-63
2023/11/29 01:22:47;;;;;;;14.20;6.70;;;;;;;3.74;80.91;98778.81;107575;1253;99071;-61
2023/11/29 01:25:15;;;;;;;11.60;7.20;;;;;;;3.75;80.70;98780.67;107607;1256;113791;-60
2023/11/29 01:27:44;;;;;;;10.10;6.50;;;;;;;3.80;80.66;98785.75;107490;1254;108861;-60
2023/11/29 01:30:12;;;;;;;11.30;6.50;;;;;;;3.87;80.66;98789.71;107601;1251;108119;-60
2023/11/29 01:32:41;;;;;;;12.50;6.60;;;;;;;3.95;80.87;98790.27;107629;1251;99185;-61
2023/11/29 01:35:09;;;;;;;13.30;6.50;;;;;;;4.01;80.91;98791.61;107640;1253;99071;-60
2023/11/29 01:37:38;;;;;;;11.60;7.10;;;;;;;4.05;80.58;98793.14;107601;1253;112034;-62
2023/11/29 01:40:08;;;;;;;10.50;6.70;;;;;;;3.97;80.04;98797.69;107553;1257;109754;-60
2023/11/29 01:42:37;;;;;;;15.80;6.70;;;;;;;3.83;79.95;98802.64;107563;1255;108579;-62
2023/11/29 01:45:07;;;;;;;12.30;6.60;;;;;;;3.70;80.26;98814.33;107634;1253;99981;-61
2023/11/29 01:47:39;;;;;;;12.00;6.80;;;;;;;3.56;80.42;98822.19;107641;1253;99063;-61
2023/11/29 01:50:10;;;;;;;10.40;6.60;;;;;;;3.41;81.58;98834.84;107617;1254;113115;-60
2023/11/29 01:52:41;;;;;;;10.40;6.90;;;;;;;3.25;82.02;98838.02;107612;1251;110136;-62
2023/11/29 01:55:12;;;;;;;9.20;6.50;;;;;;;3.16;82.56;98842.69;107550;1251;107203;-61
2023/11/29 01:57:41;;;;;;;10.00;6.90;;;;;;;3.07;83.72;98842.63;107589;1254;99080;-61
2023/11/29 02:00:11;;;;;;;11.20;6.90;;;;;;;3.02;84.00;98847.20;107638;1254;99060;-60
2023/11/29 02:02:40;;;;;;;14.80;7.80;;;;;;;2.98;84.16;98849.77;107601;1254;113544;-61
2023/11/29 02:05:09;;;;;;;12.70;6.80;;;;;;;2.95;84.99;98856.25;107566;1256;109154;-61
2023/11/29 02:07:38;;;;;;;10.50;6.30;;;;;;;2.96;84.94;98860.40;107653;1252;107778;-62
2023/11/29 02:10:07;;;;;;;8.90;6.30;;;;;;;3.03;84.42;98865.29;107617;1254;99198;-62
2023/11/29 02:12:36;;;;;;;7.70;5.50;;;;;;;3.12;84.57;98872.61;107548;1253;99182;-62
2023/11/29 02:15:05;;;;;;;7.60;5.50;;;;;;;3.16;84.49;98881.15;107612;1254;113534;-60
2023/11/29 02:17:34;;;;;;;9.60;6.10;;;;;;;3.19;84.08;98882.67;107464;1254;110272;-60
2023/11/29 02:20:04;;;;;;;9.50;5.30;;;;;;;3.25;84.19;98882.29;107598;1253;108008;-61
2023/11/29 02:22:36;;;;;;;7.00;5.60;;;;;;;3.28;83.81;98888.20;107618;1251;99073;-62
2023/11/29 02:25:05;;;;;;;9.00;5.00;;;;;;;3.32;83.67;98890.77;107605;1254;99196;-62
2023/11/29 02:27:33;;;;;;;8.60;5.70;;;;;;;3.37;83.54;98892.79;107645;1254;111760;-61
2023/11/29 02:30:01;;;;;;;13.70;6.30;;;;;;;3.35;83.38;98894.73;107624;1254;109540;-60
2023/11/29 02:32:29;;;;;;;10.00;6.60;;;;;;;3.26;83.14;98901.83;107549;1256;108574;-62
2023/11/29 02:34:58;;;;;;;12.50;6.80;;;;;;;3.19;83.43;98914.54;107620;1257;99372;-62
2023/11/29 02:37:26;;;;;;;12.70;7.60;;;;;;;3.13;83.28;98913.83;107649;1254;99660;-62
2023/11/29 02:39:56;;;;;;;13.30;8.00;;;;;;;3.10;83.48;98914.75;107429;1253;112345;-62
2023/11/29 02:42:25;;;;;;;11.90;8.10;;;;;;;3.08;83.79;98923.11;107469;1251;109008;-61
2023/11/29 02:44:53;;;;;;;13.80;8.10;;;;;;;3.07;83.89;98935.96;107632;1254;109163;-62
2023/11/29 02:47:22;;;;;;;17.40;9.50;;;;;;;3.08;83.62;98944.88;107605;1255;99206;-63
2023/11/29 02:49:50;;;;;;;15.80;9.80;;;;;;;3.08;83.89;98957.64;107628;1257;99294;-61
2023/11/29 02:52:19;;;;;;;19.60;9.50;;;;;;;3.09;84.10;98961.28;107605;1256;114033;-61
2023/11/29 02:54:47;;;;;;;21.50;9.50;;;;;;;3.07;84.03;98966.44;107587;1251;109732;-62
2023/11/29 02:57:15;;;;;;;15.60;8.10;;;;;;;3.03;83.56;98971.23;107621;1254;107940;-61
2023/11/29 02:59:45;;;;;;;18.90;10.90;;;;;;;3.00;83.67;98975.89;107566;1253;99201;-61
2023/11/29 03:02:14;;;;;;;12.10;8.70;;;;;;;2.96;83.28;98978.31;107648;1254;99743;-61
2023/11/29 03:04:43;;;;;;;16.30;8.50;;;;;;;2.99;83.59;98984.05;107593;1251;112440;-60
2023/11/29 03:07:11;;;;;;;12.20;8.10;;;;;;;3.02;82.97;98987.02;107607;1251;108856;-60
2023/11/29 03:09:40;;;;;;;15.30;8.50;;;;;;;3.00;82.75;98988.28;107532;1254;107659;-60
2023/11/29 03:12:08;;;;;;;14.90;8.90;;;;;;;3.04;82.99;98997.31;107422;1254;99305;-60
2023/11/29 03:14:37;;;;;;;12.90;8.00;;;;;;;3.08;82.61;99000.17;107585;1256;99057;-60
2023/11/29 03:17:06;;;;;;;14.80;8.00;;;;;;;3.12;82.58;98999.23;107655;1251;112573;-62
2023/11/29 03:19:34;;;;;;;17.60;8.70;;;;;;;3.03;81.35;99003.39;107616;1251;109178;-64
2023/11/29 03:22:03;;;;;;;12.20;8.40;;;;;;;2.88;80.50;99010.14;107603;1251;108656;-62
2023/11/29 03:24:31;;;;;;;16.20;9.60;;;;;;;2.76;80.71;99013.50;107569;1256;99307;-61
2023/11/29 03:26:59;;;;;;;15.10;9.20;;;;;;;2.64;80.55;99019.11;107605;1254;99085;-60
2023/11/29 03:29:28;;;;;;;15.50;9.90;;;;;;;2.53;80.59;99023.59;107637;1251;112731;-61
2023/11/29 03:31:56;;;;;;;21.90;9.60;;;;;;;2.45;80.94;99022.05;107649;1251;110099;-62
2023/11/29 03:34:26;;;;;;;16.00;9.40;;;;;;;2.40;81.06;99032.09;107455;1254;107967;-62
2023/11/29 03:36:54;;;;;;;17.00;9.50;;;;;;;2.34;80.99;99043.14;107428;1257;99246;-61
2023/11/29 03:39:23;;;;;;;22.70;9.40;;;;;;;2.29;81.21;99045.27;107605;1256;99298;-61
2023/11/29 03:41:51;;;;;;;17.60;9.70;;;;;;;2.29;81.28;99049.58;107641;1253;113554;-62
2023/11/29 03:44:20;;;;;;;18.70;10.40;;;;;;;2.33;81.52;99052.77;107589;1253;109859;-60
2023/11/29 03:46:49;;;;;;;16.70;10.00;;;;;;;2.31;81.25;99064.27;107608;1254;108647;-60
2023/11/29 03:49:17;;;;;;;16.40;9.90;;;;;;;2.19;81.42;99069.84;107561;1251;99217;-60
2023/11/29 03:51:45;;;;;;;16.80;9.40;;;;;;;2.10;81.60;99074.07;107608;1251;99197;-63
2023/11/29 03:54:16;;;;;;;22.00;11.70;;;;;;;2.01;81.53;99073.89;107634;1251;112292;-61
2023/11/29 03:56:45;;;;;;;17.70;10.50;;;;;;;1.93;81.75;99080.17;107595;1251;109291;-61
2023/11/29 03:59:13;;;;;;;23.50;12.50;;;;;;;1.88;81.80;99084.64;107583;1256;106968;-60
2023/11/29 04:01:41;;;;;;;16.60;10.50;;;;;;;1.86;82.04;99082.50;107432;1254;99214;-61
2023/11/29 04:04:10;;;;;;;21.40;12.00;;;;;;;1.84;82.27;99090.84;107557;1251;99179;-63
2023/11/29 04:06:39;;;;;;;22.60;11.00;;;;;;;1.82;82.24;99096.98;107599;1254;113204;-61
2023/11/29 04:09:07;;;;;;;24.40;12.40;;;;;;;1.77;82.42;99103.73;107558;1251;109615;-62
2023/11/29 04:11:36;;;;;;;29.70;13.10;;;;;;;1.73;82.54;99115.91;107583;1251;108300;-62
2023/11/29 04:14:07;;;;;;;21.30;12.70;;;;;;;1.75;82.91;99124.80;107613;1253;99234;-60
2023/11/29 04:16:36;;;;;;;19.60;10.60;;;;;;;1.78;82.80;99136.03;107626;1254;99788;-64
2023/11/29 04:19:04;;;;;;;19.40;11.00;;;;;;;1.77;82.92;99143.67;107619;1253;112332;-63
2023/11/29 04:21:34;;;;;;;17.10;9.80;;;;;;;1.80;82.65;99145.02;107604;1253;110361;-60
2023/11/29 04:24:03;;;;;;;23.80;10.90;;;;;;;1.82;82.72;99149.65;107566;1251;107729;-61
2023/11/29 04:26:37;;;;;;;15.40;10.20;;;;;;;1.84;82.56;99154.27;107623;1254;99177;-61
2023/11/29 04:29:08;;;;;;;19.10;11.10;;;;;;;1.90;82.61;99160.20;107606;1251;99196;-61
2023/11/29 04:31:38;;;;;;;20.70;12.30;;;;;;;1.90;82.32;99165.48;107436;1251;115551;-60
2023/11/29 04:34:07;;;;;;;18.50;11.30;;;;;;;1.89;82.45;99166.60;107555;1253;108608;-61
2023/11/29 04:36:57;;;;;;;19.00;11.60;;;;;;;1.88;82.49;99170.73;107639;1251;106873;-61
2023/11/29 04:39:25;;;;;;;20.60;11.50;;;;;;;1.88;82.44;99175.33;107625;1251;99245;-61
2023/11/29 04:41:54;;;;;;;17.30;11.30;;;;;;;1.88;82.50;99176.80;107600;1251;99186;-61
2023/11/29 04:44:22;;;;;;;26.40;13.20;;;;;;;1.84;82.60;99188.06;107503;1251;112338;-60
2023/11/29 04:46:51;;;;;;;22.70;12.40;;;;;;;1.81;82.61;99196.40;107613;1253;110099;-61
2023/11/29 04:49:19;;;;;;;23.60;13.10;;;;;;;1.77;82.63;99200.75;107553;1253;108318;-60
2023/11/29 04:51:48;;;;;;;22.10;12.60;;;;;;;1.77;82.84;99208.05;107583;1252;99187;-61
2023/11/29 04:54:17;;;;;;;28.90;16.60;;;;;;;1.75;82.75;99214.92;107671;1251;99058;-62
2023/11/29 04:56:46;;;;;;;25.80;14.70;;;;;;;1.75;82.82;99225.30;107593;1253;114609;-61
2023/11/29 04:59:14;;;;;;;23.20;14.00;;;;;;;1.73;82.78;99233.78;107632;1254;108364;-61
2023/11/29 05:01:43;;;;;;;25.20;14.60;;;;;;;1.72;82.78;99240.57;107561;1253;107353;-61
2023/11/29 05:04:11;;;;;;;23.90;14.10;;;;;;;1.76;82.60;99246.12;107587;1253;99186;-60
2023/11/29 05:06:40;;;;;;;26.10;14.90;;;;;;;1.86;82.67;99250.09;107623;1256;99196;-60
2023/11/29 05:09:09;;;;;;;32.60;17.40;;;;;;;1.91;82.55;99253.78;107616;1256;112411;-62
2023/11/29 05:11:37;;;;;;;30.30;17.40;;;;;;;1.93;82.30;99256.46;107578;1251;109627;-61
2023/11/29 05:14:06;;;;;;;26.80;14.60;;;;;;;1.93;81.96;99258.41;107534;1254;108158;-62
2023/11/29 05:16:34;;;;;;;25.70;14.50;;;;;;;1.95;81.95;99261.48;107606;1253;99285;-61
2023/11/29 05:19:03;;;;;;;22.80;12.70;;;;;;;1.95;81.87;99264.83;107623;1252;99189;-61
2023/11/29 05:21:32;;;;;;;23.80;13.90;;;;;;;1.94;81.74;99268.11;107621;1253;111721;-62
2023/11/29 05:24:00;;;;;;;24.10;15.60;;;;;;;1.92;81.61;99274.27;107553;1254;110141;-64
2023/11/29 05:26:29;;;;;;;23.80;13.80;;;;;;;1.93;81.89;99276.17;107573;1251;108308;-63
2023/11/29 05:28:57;;;;;;;21.50;13.60;;;;;;;1.93;81.74;99286.59;107527;1253;99063;-62
2023/11/29 05:31:25;;;;;;;23.90;13.90;;;;;;;1.94;81.59;99290.86;107613;1254;99134;-61
2023/11/29 05:33:54;;;;;;;22.00;13.40;;;;;;;1.96;81.77;99302.61;107608;1256;112770;-62
2023/11/29 05:36:23;;;;;;;22.10;13.20;;;;;;;2.01;81.59;99314.20;107613;1253;108271;-62
2023/11/29 05:38:51;;;;;;;18.20;12.20;;;;;;;1.99;80.79;99322.66;107556;1253;107393;-61
2023/11/29 05:41:19;;;;;;;16.40;11.70;;;;;;;2.03;81.11;99325.04;107606;1252;99281;-62
2023/11/29 05:43:48;;;;;;;17.80;12.10;;;;;;;2.12;80.83;99325.80;107622;1253;99088;-61
2023/11/29 05:46:17;;;;;;;18.80;11.20;;;;;;;2.16;80.51;99336.45;107621;1251;113072;-60
2023/11/29 05:48:45;;;;;;;18.40;10.90;;;;;;;2.21;80.57;99338.57;107621;1251;108472;-63
2023/11/29 05:51:13;;;;;;;19.50;11.90;;;;;;;2.20;80.18;99340.17;107607;1251;108684;-60
2023/11/29 05:53:42;;;;;;;15.80;11.20;;;;;;;2.20;80.16;99351.33;107556;1251;99067;-62
2023/11/29 05:56:10;;;;;;;18.70;10.90;;;;;;;2.16;79.95;99354.64;107623;1251;99835;-62
2023/11/29 05:58:43;;;;;;;20.50;12.30;;;;;;;2.13;80.03;99362.29;107593;1253;112167;-61
2023/11/29 06:01:11;;;;;;;21.70;12.40;;;;;;;2.14;80.14;99370.69;107582;1253;109691;-62
2023/11/29 06:03:39;;;;;;;17.60;11.40;;;;;;;2.16;80.45;99379.20;107565;1252;109694;-62
2023/11/29 06:06:08;;;;;;;20.10;12.50;;;;;;;2.11;80.06;99375.50;107569;1253;99602;-62
2023/11/29 06:08:36;;;;;;;19.10;11.20;;;;;;;2.08;80.20;99381.41;107591;1253;99110;-62
2023/11/29 06:11:05;;;;;;;18.50;11.60;;;;;;;2.06;80.43;99382.98;107573;1253;112193;-63
2023/11/29 06:13:34;;;;;;;18.90;12.20;;;;;;;2.01;80.43;99389.36;107653;1253;109278;-62
2023/11/29 06:16:04;;;;;;;18.60;11.90;;;;;;;1.99;80.68;99387.59;107527;1253;108531;-62
2023/11/29 06:18:32;;;;;;;18.90;11.50;;;;;;;1.99;80.87;99392.40;107634;1254;99167;-62
2023/11/29 06:21:04;;;;;;;19.70;11.60;;;;;;;2.01;80.99;99394.16;107523;1256;99801;-60
2023/11/29 06:23:32;;;;;;;23.40;12.00;;;;;;;2.01;81.05;99395.39;107663;1252;112580;-63
2023/11/29 06:26:01;;;;;;;18.60;11.20;;;;;;;1.96;81.11;99397.17;107537;1253;110519;-62
2023/11/29 06:28:29;;;;;;;16.90;11.20;;;;;;;1.98;81.28;99400.02;107615;1251;107608;-63
2023/11/29 06:30:58;;;;;;;17.90;10.90;;;;;;;2.05;81.37;99409.92;107583;1251;99190;-60
2023/11/29 06:33:26;;;;;;;18.70;11.30;;;;;;;2.13;81.40;99430.42;107629;1251;99201;-62
2023/11/29 06:35:55;;;;;;;19.90;10.80;;;;;;;2.17;81.04;99435.89;107587;1255;113730;-61
2023/11/29 06:38:23;;;;;;;17.90;11.10;;;;;;;2.16;81.04;99437.73;107538;1251;109713;-61
2023/11/29 06:40:51;;;;;;;21.10;11.20;;;;;;;2.23;80.90;99441.55;107562;1251;107567;-59
2023/11/29 06:43:28;;;;;;;19.20;11.10;;;;;;;2.34;81.08;99450.62;107454;1251;99174;-60
2023/11/29 06:45:57;;;;;;;17.20;10.00;;;;;;;2.41;80.89;99461.40;107577;1251;99329;-62
2023/11/29 06:48:26;;;;;;;12.90;8.30;;;;;;;2.39;80.39;99471.06;107653;1251;113334;-61
2023/11/29 06:50:55;;;;;;;14.50;9.10;;;;;;;2.37;79.81;99487.73;107671;1251;109227;-63
2023/11/29 06:53:24;;;;;;;9.70;7.60;;;;;;;2.34;79.61;99493.37;107592;1251;108158;-62
2023/11/29 06:55:52;;;;;;;12.20;8.90;;;;;;;2.24;79.03;99499.44;107438;1253;99201;-61
2023/11/29 06:58:22;;;;;;;13.20;8.80;;;;;;;2.19;79.14;99504.78;107641;1251;99359;-62
2023/11/29 07:00:53;;;;;;;14.90;9.50;;;;;;;2.15;79.44;99511.98;107643;1251;112485;-61
2023/11/29 07:03:21;;;;;;;15.20;9.50;;;;;;;2.17;79.80;99516.96;107591;1250;108737;-60
2023/11/29 07:05:51;;;;;;;12.90;8.70;;;;;;;2.19;79.53;99521.23;107499;1253;108923;-62
2023/11/29 07:08:19;;;;;;;11.00;8.20;;;;;;;2.22;79.46;99525.27;107568;1253;99177;-61
2023/11/29 07:10:48;;;;;;;13.50;8.30;;;;;;;2.26;79.45;99539.65;107611;1252;99805;-60
2023/11/29 07:13:16;;;;;;;10.40;8.00;;;;;;;2.26;79.39;99541.76;107618;1253;113184;-60
2023/11/29 07:15:45;;;;;;;11.10;7.90;;;;;;;2.28;79.52;99536.98;107623;1251;108992;-60
2023/11/29 07:18:13;;;;;;;12.30;7.30;;;;;;;2.32;79.48;99548.95;107630;1251;105638;-61
2023/11/29 07:20:42;;;;;;;10.90;7.80;;;;;;;2.29;79.15;99558.36;107583;1251;99186;-61
2023/11/29 07:23:14;;;;;;;14.00;8.30;;;;;;;2.18;79.00;99563.56;107634;1251;99784;-62
2023/11/29 07:25:42;;;;;;;12.50;8.40;;;;;;;2.13;79.22;99580.05;107586;1252;112931;-63
2023/11/29 07:28:10;;;;;;;15.70;9.00;;;;;;;2.04;79.87;99593.23;107598;1253;109033;-61
2023/11/29 07:30:39;;;;;;;12.10;7.80;;;;;;;2.00;80.04;99605.52;107589;1251;107569;-61
2023/11/29 07:33:10;;;;;;;9.50;7.90;;;;;;;2.05;80.05;99600.27;107639;1255;99170;-61
2023/11/29 07:35:39;;;;;;;11.30;7.50;;;;;;;2.04;79.78;99599.92;107582;1253;99737;-60
2023/11/29 07:38:07;;;;;;;11.80;7.70;;;;;;;2.06;79.50;99611.83;107494;1253;112094;-62
2023/11/29 07:40:35;;;;;;;11.00;8.50;;;;;;;2.01;78.69;99630.95;107530;1251;108939;-61
2023/11/29 07:43:04;;;;;;;11.90;9.10;;;;;;;1.98;78.81;99639.80;107535;1255;108632;-61
2023/11/29 07:45:32;;;;;;;16.00;9.10;;;;;;;2.04;79.02;99649.83;107484;1253;99170;-62
2023/11/29 07:48:01;;;;;;;12.70;8.80;;;;;;;2.04;78.10;99660.27;107587;1251;99189;-60
2023/11/29 07:50:30;;;;;;;11.70;8.30;;;;;;;2.01;78.33;99672.98;107519;1253;112655;-61
2023/11/29 07:53:00;;;;;;;14.00;9.60;;;;;;;2.02;77.84;99686.23;107589;1251;109724;-62
2023/11/29 07:55:29;;;;;;;17.00;10.40;;;;;;;1.96;77.51;99696.52;107541;1255;107160;-61
2023/11/29 07:57:58;;;;;;;14.50;10.00;;;;;;;1.97;77.64;99702.87;107539;1255;99330;-61
2023/11/29 08:00:26;;;;;;;18.60;11.00;;;;;;;2.03;77.72;99711.41;107573;1252;99096;-61
2023/11/29 08:02:54;;;;;;;27.00;14.70;;;;;;;2.10;77.89;99715.76;107611;1253;112562;-61
2023/11/29 08:05:27;;;;;;;15.60;10.10;;;;;;;2.19;77.97;99723.96;107651;1253;109313;-60
2023/11/29 08:07:56;;;;;;;18.40;10.50;;;;;;;2.21;77.47;99731.23;107600;1255;107168;-61
2023/11/29 08:10:24;;;;;;;14.80;9.90;;;;;;;2.14;76.03;99739.36;107562;1253;99175;-61
2023/11/29 08:12:53;;;;;;;28.30;17.30;;;;;;;2.00;75.34;99736.26;107589;1255;99176;-59
2023/11/29 08:15:22;;;;;;;17.20;9.90;;;;;;;1.92;74.37;99739.65;107647;1253;112804;-60
2023/11/29 08:17:50;;;;;;;16.00;9.80;;;;;;;1.76;72.46;99746.17;107621;1253;109747;-61
2023/11/29 08:20:18;;;;;;;15.40;9.70;;;;;;;1.72;73.28;99742.41;107462;1253;109403;-61
2023/11/29 08:22:46;;;;;;;15.10;9.80;;;;;;;1.70;72.15;99737.08;107532;1253;99181;-64
2023/11/29 08:25:15;;;;;;;15.50;9.10;;;;;;;1.69;72.37;99724.76;107652;1252;99180;-62
2023/11/29 08:27:43;;;;;;;14.60;9.90;;;;;;;1.72;72.17;99737.64;107610;1252;112379;-61
2023/11/29 08:30:12;;;;;;;19.00;9.60;;;;;;;1.76;71.92;99754.31;107437;1253;111119;-60
2023/11/29 08:32:40;;;;;;;16.50;10.70;;;;;;;1.78;71.56;99757.40;107594;1252;108185;-60
2023/11/29 08:35:09;;;;;;;17.40;9.80;;;;;;;1.88;71.18;99779.13;107630;1252;99183;-60
2023/11/29 08:37:38;;;;;;;15.50;10.60;;;;;;;1.99;70.94;99792.88;107665;1252;99067;-61
2023/11/29 08:40:07;;;;;;;17.20;10.60;;;;;;;2.26;70.94;99785.36;107608;1253;112803;-60
2023/11/29 08:42:36;;;;;;;15.90;9.30;;;;;;;2.45;70.79;99788.11;107604;1251;109718;-61
2023/11/29 08:45:05;;;;;;;12.20;8.20;;;;;;;2.60;68.81;99786.55;107594;1251;106565;-62
2023/11/29 08:47:34;;;;;;;12.80;8.90;;;;;;;2.71;68.20;99781.72;107602;1251;99064;-60
2023/11/29 08:50:05;;;;;;;14.50;9.30;;;;;;;3.20;68.31;99765.91;107608;1253;99186;-61
2023/11/29 08:52:33;;;;;;;12.90;8.80;;;;;;;4.09;68.23;99769.52;107560;1253;113529;-61
2023/11/29 08:55:04;;;;;;;11.90;8.50;;;;;;;4.58;66.95;99780.80;107635;1250;108747;-61
2023/11/29 08:57:33;;;;;;;14.20;8.80;;;;;;;5.05;64.07;99780.42;107620;1252;108216;-61
2023/11/29 09:00:01;;;;;;;13.80;9.50;;;;;;;5.47;63.40;99773.63;107589;1251;99077;-62
2023/11/29 09:02:29;;;;;;;15.10;9.50;;;;;;;5.51;63.14;99772.83;107638;1251;99750;-61
2023/11/29 09:04:58;;;;;;;13.60;9.20;;;;;;;5.69;61.27;99773.64;107655;1251;112112;-60
2023/11/29 09:07:27;;;;;;;12.30;8.30;;;;;;;5.62;60.30;99771.48;107676;1251;109678;-63
2023/11/29 09:09:58;;;;;;;13.10;8.10;;;;;;;5.75;59.60;99761.20;107626;1251;107074;-60
2023/11/29 09:12:26;;;;;;;14.30;9.60;;;;;;;5.92;60.71;99751.90;107608;1253;99181;-61
2023/11/29 09:14:55;;;;;;;13.50;8.60;;;;;;;6.73;57.85;99750.80;107447;1252;99541;-61
2023/11/29 09:17:24;;;;;;;14.90;9.00;;;;;;;7.29;55.66;99751.50;107669;1253;112957;-62
2023/11/29 09:19:56;;;;;;;12.30;8.70;;;;;;;7.87;54.93;99753.14;107568;1251;109878;-60
2023/11/29 09:22:24;;;;;;;13.30;8.20;;;;;;;8.48;53.55;99762.23;107660;1251;108787;-62
2023/11/29 09:24:52;;;;;;;14.20;9.10;;;;;;;9.22;52.92;99761.70;107510;1252;99175;-62
2023/11/29 09:27:21;;;;;;;12.00;8.20;;;;;;;9.73;51.42;99761.52;107652;1251;99077;-62
2023/11/29 09:29:49;;;;;;;11.30;8.10;;;;;;;10.18;49.61;99763.13;107646;1251;113227;-61
2023/11/29 09:32:18;;;;;;;11.40;8.00;;;;;;;10.30;47.97;99767.58;107658;1253;109283;-61
2023/11/29 09:34:46;;;;;;;16.80;9.10;;;;;;;10.78;49.01;99772.14;107615;1252;108517;-61
2023/11/29 09:37:15;;;;;;;15.30;8.30;;;;;;;11.05;44.17;99779.89;107565;1251;99263;-61
2023/11/29 09:39:43;;;;;;;14.50;9.40;;;;;;;10.86;42.70;99781.28;107632;1251;99170;-61
2023/11/29 09:42:12;;;;;;;19.60;9.20;;;;;;;10.97;43.91;99783.08;107617;1252;113224;-62
2023/11/29 09:44:40;;;;;;;15.10;8.60;;;;;;;11.16;41.58;99782.84;107616;1251;110203;-61
2023/11/29 09:47:10;;;;;;;12.60;9.90;;;;;;;11.27;41.50;99788.98;107593;1253;108249;-60
2023/11/29 09:49:38;;;;;;;16.20;11.20;;;;;;;11.30;40.98;99796.45;107654;1252;99048;-60
2023/11/29 09:52:07;;;;;;;14.10;10.30;;;;;;;10.95;39.97;99800.33;107500;1251;99059;-63
2023/11/29 09:54:35;;;;;;;11.70;9.80;;;;;;;10.86;41.45;99807.67;107538;1251;112745;-61
2023/11/29 09:57:04;;;;;;;14.30;9.80;;;;;;;10.61;41.62;99799.65;107461;1253;109999;-62
2023/11/29 09:59:33;;;;;;;15.50;10.90;;;;;;;10.54;39.99;99805.06;107575;1255;108459;-62
2023/11/29 10:02:07;;;;;;;14.10;10.70;;;;;;;10.18;40.17;99818.06;107534;1253;99273;-62
2023/11/29 10:04:39;;;;;;;14.80;10.70;;;;;;;9.88;40.92;99831.15;107596;1252;99099;-61
2023/11/29 10:07:08;;;;;;;17.70;11.40;;;;;;;9.23;42.74;99830.15;107554;1251;111804;-64
2023/11/29 10:09:37;;;;;;;15.10;11.10;;;;;;;9.35;43.83;99843.16;107498;1251;109036;-61
2023/11/29 10:12:08;;;;;;;18.40;11.40;;;;;;;9.80;43.46;99848.98;107183;1251;486520;-60
2023/11/29 10:14:42;;;;;;;17.50;11.70;;;;;;;9.24;42.08;99862.86;107557;1254;99198;-62
2023/11/29 10:17:15;;;;;;;16.00;11.50;;;;;;;8.15;43.22;99864.71;107567;1251;99520;-61
2023/11/29 10:19:47;;;;;;;20.50;12.50;;;;;;;7.43;45.05;99866.52;107573;1251;113779;-61
2023/11/29 10:22:16;;;;;;;20.50;12.40;;;;;;;6.83;45.94;99884.64;107581;1253;109226;-61
2023/11/29 10:24:45;;;;;;;18.20;12.40;;;;;;;6.20;47.47;99891.30;107594;1256;107572;-62
2023/11/29 10:27:16;;;;;;;26.40;13.80;;;;;;;5.84;48.55;99901.16;107606;1255;99227;-64
2023/11/29 10:29:46;;;;;;;20.10;12.70;;;;;;;5.61;49.41;99892.18;107573;1254;99205;-62
2023/11/29 10:32:17;;;;;;;17.90;12.20;;;;;;;5.33;49.99;99899.60;107648;1251;112136;-64
2023/11/29 10:34:48;;;;;;;22.00;13.70;;;;;;;5.25;50.62;99905.21;107599;1251;110180;-64
2023/11/29 10:37:18;;;;;;;18.70;12.90;;;;;;;5.08;51.22;99910.98;107550;1250;107884;-61
2023/11/29 10:39:53;;;;;;;28.80;13.50;;;;;;;5.02;51.71;99913.95;107590;1251;99175;-61
2023/11/29 10:42:22;;;;;;;22.10;13.10;;;;;;;4.89;52.19;99920.66;107597;1251;99073;-61
2023/11/29 10:44:51;;;;;;;22.30;13.60;;;;;;;4.66;52.33;99922.63;107550;1252;112064;-60
2023/11/29 10:47:30;;;;;;;24.00;14.20;;;;;;;4.36;52.87;99929.71;107553;1250;108319;-60
2023/11/29 10:50:04;;;;;;;26.00;14.70;;;;;;;4.08;53.33;99932.67;107575;1251;107878;-62
2023/11/29 10:52:33;;;;;;;26.70;15.60;;;;;;;3.86;54.03;99942.30;107478;1250;99175;-61
2023/11/29 10:55:02;;;;;;;26.80;15.50;;;;;;;3.77;54.36;99948.27;107622;1253;99086;-62
2023/11/29 10:57:56;;;;;;;23.60;15.30;;;;;;;3.67;54.83;99948.45;107580;1251;112039;-62
2023/11/29 11:00:29;;;;;;;27.00;14.60;;;;;;;3.63;55.08;99948.58;107500;1252;108724;-63
2023/11/29 11:02:58;;;;;;;;;;;;;;;3.64;55.28;99952.45;107578;1251;107474;-61
2023/11/29 11:05:30;;;;;;;22.40;14.10;;;;;;;3.64;55.29;99961.61;107587;1252;99286;-62
2023/11/29 11:07:59;;;;;;;27.20;14.70;;;;;;;3.58;55.88;99975.55;107653;1251;99733;-61
2023/11/29 11:10:29;;;;;;;24.00;14.90;;;;;;;3.52;55.83;99976.52;107546;1252;113023;-61
2023/11/29 11:12:58;;;;;;;27.30;16.10;;;;;;;3.42;56.70;99981.23;107574;1253;108732;-61
2023/11/29 11:15:28;;;;;;;27.10;15.40;;;;;;;3.25;56.55;99988.70;107564;1253;108630;-61
2023/11/29 11:18:03;;;;;;;25.60;15.80;;;;;;;3.20;56.77;99993.50;107629;1256;99173;-61
2023/11/29 11:20:48;;;;;;;25.50;14.90;;;;;;;3.32;57.08;99994.39;107563;1253;99740;-62
2023/11/29 11:23:19;;;;;;;24.70;15.00;;;;;;;3.39;57.18;99991.09;107561;1256;114598;-60
2023/11/29 11:25:52;;;;;;;25.80;14.80;;;;;;;3.45;57.35;99992.58;107623;1252;109676;-61